createdAt,value
2023-05-24T00:01:04.932Z,2.85
2023-05-24T00:03:50.728Z,2.85
2023-05-24T00:06:37.365Z,3.45
2023-05-24T00:09:23.093Z,2.47
2023-05-24T00:12:08.720Z,2.70
2023-05-24T00:14:54.261Z,2.88
2023-05-24T00:17:42.888Z,2.90
2023-05-24T00:20:28.751Z,3.00
2023-05-24T00:23:14.228Z,2.20
2023-05-24T00:25:59.881Z,2.15
2023-05-24T00:28:45.490Z,2.63
2023-05-24T00:31:30.986Z,2.95
2023-05-24T00:34:16.410Z,3.33
2023-05-24T00:37:03.693Z,2.40
2023-05-24T00:39:49.127Z,2.55
2023-05-24T00:42:35.048Z,2.65
2023-05-24T00:45:20.485Z,2.53
2023-05-24T00:48:06.360Z,2.75
2023-05-24T00:50:52.901Z,2.60
2023-05-24T00:53:39.306Z,2.85
2023-05-24T00:56:26.812Z,2.78
2023-05-24T00:59:12.551Z,2.55
2023-05-24T01:01:58.259Z,2.45
2023-05-24T01:04:44.653Z,2.33
2023-05-24T01:07:37.979Z,2.70
2023-05-24T01:10:39.605Z,2.88
2023-05-24T01:13:54.559Z,2.75
2023-05-24T01:16:51.936Z,3.40
2023-05-24T01:20:16.247Z,4.53
2023-05-24T01:23:16.252Z,3.22
2023-05-24T01:26:38.207Z,3.22
2023-05-24T01:29:24.359Z,3.38
2023-05-24T01:32:10.523Z,3.03
2023-05-24T01:34:58.267Z,3.20
2023-05-24T01:37:43.522Z,3.33
2023-05-24T01:40:29.055Z,4.10
2023-05-24T01:43:17.703Z,3.17
2023-05-24T01:46:19.670Z,3.75
2023-05-24T01:49:21.176Z,3.25
2023-05-24T01:52:13.217Z,3.33
2023-05-24T01:55:01.139Z,3.13
2023-05-24T01:57:50.833Z,3.20
2023-05-24T02:00:37.992Z,3.95
2023-05-24T02:03:23.765Z,2.88
2023-05-24T02:06:10.937Z,2.97
2023-05-24T02:08:58.412Z,3.33
2023-05-24T02:11:43.910Z,3.22
2023-05-24T02:14:29.349Z,3.13
2023-05-24T02:17:14.654Z,3.10
2023-05-24T02:20:00.741Z,3.30
2023-05-24T02:22:46.865Z,2.75
2023-05-24T02:25:33.312Z,3.17
2023-05-24T02:28:19.062Z,3.28
2023-05-24T02:31:05.035Z,4.10
2023-05-24T02:33:50.438Z,3.58
2023-05-24T02:36:36.496Z,3.10
2023-05-24T02:39:22.034Z,3.78
2023-05-24T02:42:08.913Z,3.22
2023-05-24T02:44:54.083Z,3.30
2023-05-24T02:47:39.405Z,3.08
2023-05-24T02:50:24.900Z,3.33
2023-05-24T02:53:10.420Z,2.67
2023-05-24T02:55:56.383Z,3.08
2023-05-24T02:58:41.691Z,3.15
2023-05-24T03:01:27.619Z,3.30
2023-05-24T03:04:15.531Z,3.97
2023-05-24T03:07:01.637Z,3.55
2023-05-24T03:09:46.953Z,3.65
2023-05-24T03:12:32.942Z,3.33
2023-05-24T03:15:18.358Z,3.80
2023-05-24T03:18:04.832Z,3.63
2023-05-24T03:20:51.123Z,3.88
2023-05-24T03:23:36.800Z,3.08
2023-05-24T03:26:23.558Z,4.07
2023-05-24T03:29:09.348Z,3.70
2023-05-24T03:31:58.318Z,3.80
2023-05-24T03:34:44.030Z,3.75
2023-05-24T03:37:29.970Z,3.47
2023-05-24T03:40:15.916Z,3.42
2023-05-24T03:43:15.686Z,3.42
2023-05-24T03:46:05.840Z,3.33
2023-05-24T03:48:51.161Z,3.20
2023-05-24T03:51:37.222Z,3.72
2023-05-24T03:54:22.795Z,3.20
2023-05-24T03:57:09.224Z,3.65
2023-05-24T03:59:54.483Z,4.03
2023-05-24T04:02:41.480Z,4.18
2023-05-24T04:05:29.901Z,3.67
2023-05-24T04:08:16.547Z,4.30
2023-05-24T04:11:02.329Z,4.03
2023-05-24T04:13:47.956Z,3.30
2023-05-24T04:16:39.664Z,3.80
2023-05-24T04:19:25.399Z,4.38
2023-05-24T04:22:11.154Z,3.60
2023-05-24T04:24:56.647Z,4.03
2023-05-24T04:27:42.067Z,4.25
2023-05-24T04:30:30.264Z,3.33
2023-05-24T04:33:17.011Z,4.03
2023-05-24T04:36:02.806Z,3.38
2023-05-24T04:38:48.634Z,3.53
2023-05-24T04:41:36.129Z,3.40
2023-05-24T04:44:21.556Z,3.58
2023-05-24T04:47:07.812Z,3.55
2023-05-24T04:49:53.751Z,3.60
2023-05-24T04:52:39.388Z,3.65
2023-05-24T04:55:24.817Z,3.55
2023-05-24T04:58:10.807Z,4.05
2023-05-24T05:00:56.786Z,3.80
2023-05-24T05:03:42.386Z,4.20
2023-05-24T05:06:27.630Z,3.72
2023-05-24T05:09:14.872Z,3.42
2023-05-24T05:12:00.396Z,3.97
2023-05-24T05:14:45.915Z,4.05
2023-05-24T05:17:31.183Z,4.25
2023-05-24T05:20:17.141Z,3.60
2023-05-24T05:23:03.314Z,3.75
2023-05-24T05:25:48.845Z,4.13
2023-05-24T05:28:34.261Z,4.45
2023-05-24T05:31:19.628Z,3.95
2023-05-24T05:34:05.197Z,4.60
2023-05-24T05:36:51.064Z,5.07
2023-05-24T05:39:36.205Z,4.55
2023-05-24T05:42:21.639Z,4.05
2023-05-24T05:45:07.738Z,4.32
2023-05-24T05:47:53.190Z,4.72
2023-05-24T05:50:38.503Z,3.47
2023-05-24T05:53:25.190Z,4.28
2023-05-24T05:56:10.862Z,3.40
2023-05-24T05:58:56.158Z,4.13
2023-05-24T06:01:42.067Z,3.33
2023-05-24T06:04:27.573Z,4.45
2023-05-24T06:07:12.868Z,3.85
2023-05-24T06:09:58.305Z,3.72
2023-05-24T06:12:43.724Z,3.92
2023-05-24T06:15:29.571Z,3.60
2023-05-24T06:18:15.536Z,3.17
2023-05-24T06:21:01.026Z,3.45
2023-05-24T06:23:46.321Z,2.95
2023-05-24T06:26:31.627Z,3.20
2023-05-24T06:29:19.737Z,3.67
2023-05-24T06:32:05.836Z,3.97
2023-05-24T06:34:51.330Z,3.65
2023-05-24T06:37:38.705Z,4.03
2023-05-24T06:40:24.298Z,3.65
2023-05-24T06:43:09.527Z,2.92
2023-05-24T06:45:57.849Z,3.50
2023-05-24T06:48:43.345Z,3.33
2023-05-24T06:51:29.258Z,3.47
2023-05-24T06:54:14.861Z,3.03
2023-05-24T06:57:00.288Z,3.65
2023-05-24T06:59:45.689Z,3.30
2023-05-24T07:02:31.606Z,4.35
2023-05-24T07:05:17.210Z,3.17
2023-05-24T07:08:02.725Z,3.17
2023-05-24T07:10:48.048Z,4.07
2023-05-24T07:13:34.106Z,3.58
2023-05-24T07:16:19.717Z,3.17
2023-05-24T07:19:05.599Z,3.08
2023-05-24T07:21:51.409Z,2.92
2023-05-24T07:24:37.145Z,3.20
2023-05-24T07:27:23.210Z,3.83
2023-05-24T07:30:19.756Z,3.75
2023-05-24T07:33:09.358Z,3.65
2023-05-24T07:35:54.830Z,3.08
2023-05-24T07:38:40.271Z,3.47
2023-05-24T07:41:29.433Z,2.97
2023-05-24T07:44:15.840Z,3.83
2023-05-24T07:47:02.739Z,3.95
2023-05-24T07:49:48.196Z,3.80
2023-05-24T07:52:33.601Z,2.90
2023-05-24T07:55:18.842Z,3.40
2023-05-24T07:58:04.231Z,2.38
2023-05-24T08:00:49.663Z,2.45
2023-05-24T08:03:35.221Z,2.92
2023-05-24T08:06:21.174Z,2.65
2023-05-24T08:09:08.432Z,2.92
2023-05-24T08:11:53.871Z,3.03
2023-05-24T08:14:39.448Z,2.42
2023-05-24T08:17:25.088Z,3.03
2023-05-24T08:20:14.426Z,2.45
2023-05-24T08:22:59.973Z,2.28
2023-05-24T08:25:45.546Z,2.50
2023-05-24T08:28:31.221Z,2.53
2023-05-24T08:31:17.217Z,2.65
2023-05-24T08:34:03.649Z,2.65
2023-05-24T08:36:49.316Z,2.50
2023-05-24T08:39:34.883Z,2.75
2023-05-24T08:42:21.840Z,2.63
2023-05-24T08:45:14.608Z,1.92
2023-05-24T08:48:01.019Z,2.80
2023-05-24T08:50:47.318Z,2.55
2023-05-24T08:53:35.846Z,2.28
2023-05-24T08:56:22.216Z,2.97
2023-05-24T08:59:09.143Z,2.70
2023-05-24T09:01:55.616Z,2.33
2023-05-24T09:04:42.040Z,2.45
2023-05-24T09:07:28.323Z,2.60
2023-05-24T09:10:15.828Z,2.33
2023-05-24T09:13:04.569Z,2.15
2023-05-24T09:15:50.172Z,2.90
2023-05-24T09:18:35.764Z,3.15
2023-05-24T09:21:22.414Z,2.67
2023-05-24T09:24:09.500Z,3.08
2023-05-24T09:26:54.816Z,2.53
2023-05-24T09:29:41.552Z,2.70
2023-05-24T09:32:28.876Z,2.45
2023-05-24T09:35:14.301Z,2.03
2023-05-24T09:38:00.389Z,2.28
2023-05-24T09:40:47.071Z,2.70
2023-05-24T09:43:34.860Z,2.47
2023-05-24T09:46:21.838Z,2.53
2023-05-24T09:49:08.239Z,3.00
2023-05-24T09:51:54.126Z,2.00
2023-05-24T09:54:41.936Z,2.67
2023-05-24T09:57:28.304Z,2.63
2023-05-24T10:00:16.594Z,2.33
2023-05-24T10:03:04.762Z,2.40
2023-05-24T10:05:51.878Z,2.50
2023-05-24T10:08:37.536Z,3.03
2023-05-24T10:11:23.031Z,3.53
2023-05-24T10:14:09.994Z,2.38
2023-05-24T10:16:55.940Z,2.78
2023-05-24T10:19:42.125Z,2.70
2023-05-24T10:22:28.286Z,2.83
2023-05-24T10:25:21.709Z,3.67
2023-05-24T10:28:12.996Z,2.70
2023-05-24T10:31:15.202Z,3.13
2023-05-24T10:36:54.749Z,3.17
2023-05-24T10:39:42.132Z,2.80
2023-05-24T10:42:27.470Z,3.97
2023-05-24T10:45:25.437Z,3.13
2023-05-24T10:48:14.041Z,3.20
2023-05-24T10:51:02.160Z,2.60
2023-05-24T10:53:50.349Z,2.95
2023-05-24T10:56:44.156Z,2.97
2023-05-24T10:59:37.552Z,3.17
2023-05-24T11:02:28.562Z,3.10
2023-05-24T11:05:14.573Z,3.08
2023-05-24T11:08:01.412Z,2.35
2023-05-24T11:10:47.672Z,2.88
2023-05-24T11:13:33.932Z,2.38
2023-05-24T11:16:39.520Z,3.33
2023-05-24T11:19:33.262Z,2.67
2023-05-24T11:22:21.477Z,2.47
2023-05-24T11:25:09.160Z,2.88
2023-05-24T11:27:54.732Z,2.30
2023-05-24T11:30:47.296Z,3.55
2023-05-24T11:33:33.411Z,3.47
2023-05-24T11:36:20.724Z,2.53
2023-05-24T11:39:09.488Z,2.67
2023-05-24T11:41:55.200Z,2.55
2023-05-24T11:44:40.508Z,3.13
2023-05-24T11:47:26.310Z,2.70
2023-05-24T11:50:16.745Z,2.60
2023-05-24T11:53:05.368Z,3.08
2023-05-24T11:55:51.558Z,3.35
2023-05-24T11:58:50.259Z,3.10
2023-05-24T12:01:36.136Z,3.47
2023-05-24T12:04:21.779Z,3.15
2023-05-24T12:07:12.361Z,2.85
2023-05-24T12:09:58.672Z,3.22
2023-05-24T12:12:46.204Z,3.00
2023-05-24T12:15:32.256Z,3.28
2023-05-24T12:18:21.218Z,3.00
2023-05-24T12:21:13.154Z,3.42
2023-05-24T12:24:05.070Z,3.65
2023-05-24T12:26:50.978Z,2.75
2023-05-24T12:29:41.926Z,3.70
2023-05-24T12:32:27.688Z,3.03
2023-05-24T12:35:13.679Z,3.15
2023-05-24T12:38:00.287Z,3.03
2023-05-24T12:40:59.772Z,3.58
2023-05-24T12:43:54.613Z,3.38
2023-05-24T12:46:40.342Z,2.53
2023-05-24T12:49:27.021Z,3.53
2023-05-24T12:52:13.252Z,3.10
2023-05-24T12:54:58.665Z,3.28
2023-05-24T12:57:44.997Z,2.90
2023-05-24T13:00:30.940Z,3.22
2023-05-24T13:03:16.625Z,2.97
2023-05-24T13:06:02.563Z,3.15
2023-05-24T13:08:48.083Z,2.95
2023-05-24T13:11:33.866Z,3.15
2023-05-24T13:14:20.020Z,2.70
2023-05-24T13:17:06.561Z,3.58
2023-05-24T13:19:52.005Z,3.53
2023-05-24T13:22:39.355Z,3.35
2023-05-24T13:25:24.903Z,3.20
2023-05-24T13:28:11.045Z,3.47
2023-05-24T13:30:56.353Z,2.72
2023-05-24T13:33:41.843Z,3.78
2023-05-24T13:36:27.863Z,3.35
2023-05-24T13:39:16.231Z,3.15
2023-05-24T13:42:03.052Z,3.40
2023-05-24T13:44:48.581Z,3.85
2023-05-24T13:47:40.043Z,3.85
2023-05-24T13:50:26.968Z,3.92
2023-05-24T13:53:12.564Z,3.10
2023-05-24T13:55:58.136Z,3.72
2023-05-24T13:58:43.985Z,3.05
2023-05-24T14:01:30.527Z,3.53
2023-05-24T14:04:17.052Z,4.35
2023-05-24T14:07:03.045Z,3.38
2023-05-24T14:09:48.648Z,3.35
2023-05-24T14:12:34.025Z,4.43
2023-05-24T14:15:19.435Z,3.25
2023-05-24T14:18:08.549Z,4.45
2023-05-24T14:20:54.411Z,4.18
2023-05-24T14:23:39.820Z,3.63
2023-05-24T14:26:25.505Z,3.72
2023-05-24T14:29:11.055Z,3.97
2023-05-24T14:31:57.048Z,4.25
2023-05-24T14:34:42.663Z,4.20
2023-05-24T14:37:28.046Z,3.65
2023-05-24T14:40:13.938Z,5.00
2023-05-24T14:43:00.848Z,3.40
2023-05-24T14:45:46.943Z,3.60
2023-05-24T14:48:33.093Z,4.22
2023-05-24T14:51:19.414Z,4.43
2023-05-24T14:54:05.112Z,4.03
2023-05-24T14:56:50.655Z,3.70
2023-05-24T14:59:36.322Z,3.97
2023-05-24T15:02:21.910Z,3.53
2023-05-24T15:05:08.202Z,3.38
2023-05-24T15:07:53.452Z,3.17
2023-05-24T15:10:44.476Z,3.80
2023-05-24T15:13:31.243Z,3.17
2023-05-24T15:16:16.637Z,4.28
2023-05-24T15:19:02.369Z,4.82
2023-05-24T15:21:47.793Z,3.60
2023-05-24T15:24:33.422Z,3.50
2023-05-24T15:27:18.977Z,3.67
2023-05-24T15:30:04.923Z,3.83
2023-05-24T15:32:50.373Z,3.88
2023-05-24T15:35:36.511Z,3.47
2023-05-24T15:38:22.793Z,3.55
2023-05-24T15:41:09.539Z,3.92
2023-05-24T15:43:55.392Z,3.53
2023-05-24T15:46:41.410Z,3.78
2023-05-24T15:49:27.337Z,3.67
2023-05-24T15:52:12.992Z,4.15
2023-05-24T15:54:58.192Z,3.55
2023-05-24T15:57:43.565Z,3.63
2023-05-24T16:00:34.636Z,3.25
2023-05-24T16:03:20.493Z,3.33
2023-05-24T16:06:07.117Z,3.15
2023-05-24T16:08:52.574Z,3.45
2023-05-24T16:11:37.863Z,3.25
2023-05-24T16:14:23.395Z,3.40
2023-05-24T16:17:09.073Z,3.40
2023-05-24T16:19:54.955Z,2.67
2023-05-24T16:22:48.824Z,2.10
2023-05-24T16:25:34.320Z,2.60
2023-05-24T16:28:24.314Z,2.60
2023-05-24T16:31:09.662Z,2.50
2023-05-24T16:33:55.070Z,3.15
2023-05-24T16:36:41.028Z,3.03
2023-05-24T16:39:27.171Z,2.95
2023-05-24T16:42:12.745Z,3.42
2023-05-24T16:44:57.980Z,3.30
2023-05-24T16:47:43.443Z,3.20
2023-05-24T16:50:29.664Z,4.22
2023-05-24T16:53:15.088Z,4.70
2023-05-24T16:56:00.767Z,4.82
2023-05-24T16:58:46.251Z,3.92
2023-05-24T17:01:32.038Z,3.53
2023-05-24T17:04:19.031Z,3.38
2023-05-24T17:07:04.499Z,3.05
2023-05-24T17:09:51.280Z,3.65
2023-05-24T17:12:36.935Z,2.75
2023-05-24T17:15:22.384Z,3.03
2023-05-24T17:18:08.282Z,2.70
2023-05-24T17:20:56.237Z,3.13
2023-05-24T17:23:41.916Z,3.10
2023-05-24T17:26:27.889Z,2.65
2023-05-24T17:29:13.227Z,3.13
2023-05-24T17:31:59.040Z,3.42
2023-05-24T17:34:45.838Z,3.33
2023-05-24T17:37:31.373Z,4.13
2023-05-24T17:40:17.079Z,4.30
2023-05-24T17:43:03.322Z,3.58
2023-05-24T17:45:49.048Z,3.35
2023-05-24T17:48:39.361Z,3.28
2023-05-24T17:51:24.853Z,2.90
2023-05-24T17:54:10.176Z,2.78
2023-05-24T17:56:55.622Z,2.58
2023-05-24T17:59:41.111Z,2.45
2023-05-24T18:02:26.629Z,2.17
2023-05-24T18:05:12.348Z,1.80
2023-05-24T18:07:57.707Z,1.85
2023-05-24T18:10:43.082Z,1.95
2023-05-24T18:13:28.406Z,1.50
2023-05-24T18:16:14.186Z,1.73
2023-05-24T18:18:59.654Z,1.30
2023-05-24T18:21:45.243Z,1.60
2023-05-24T18:24:30.717Z,1.50
2023-05-24T18:27:15.966Z,1.60
2023-05-24T18:30:02.154Z,1.83
2023-05-24T18:33:03.614Z,1.42
2023-05-24T18:35:50.814Z,1.60
2023-05-24T18:38:37.489Z,2.05
2023-05-24T18:41:22.703Z,2.15
2023-05-24T18:44:08.322Z,1.73
2023-05-24T18:46:56.371Z,1.80
2023-05-24T18:49:42.521Z,1.80
2023-05-24T18:52:28.142Z,1.50
2023-05-24T18:55:14.355Z,1.73
2023-05-24T18:57:59.923Z,1.63
2023-05-24T19:00:45.400Z,1.80
2023-05-24T19:03:30.894Z,1.30
2023-05-24T19:06:16.778Z,1.48
2023-05-24T19:09:02.749Z,1.63
2023-05-24T19:11:49.359Z,1.77
2023-05-24T19:14:35.013Z,1.40
2023-05-24T19:17:20.418Z,1.27
2023-05-24T19:20:07.324Z,1.25
2023-05-24T19:22:52.980Z,1.27
2023-05-24T19:25:42.221Z,1.45
2023-05-24T19:28:27.890Z,1.30
2023-05-24T19:31:13.295Z,1.38
2023-05-24T19:34:00.527Z,1.20
2023-05-24T19:36:46.325Z,1.38
2023-05-24T19:39:31.838Z,1.20
2023-05-24T19:42:17.152Z,1.48
2023-05-24T19:45:02.634Z,1.40
2023-05-24T19:47:48.282Z,1.35
2023-05-24T19:50:33.584Z,0.98
2023-05-24T19:53:18.932Z,1.52
2023-05-24T19:56:04.555Z,1.30
2023-05-24T19:58:50.701Z,0.93
2023-05-24T20:01:36.168Z,1.00
2023-05-24T20:04:22.056Z,1.50
2023-05-24T20:07:11.119Z,1.17
2023-05-24T20:09:56.587Z,1.35
2023-05-24T20:12:42.816Z,1.50
2023-05-24T20:15:28.516Z,1.52
2023-05-24T20:18:14.182Z,1.63
2023-05-24T20:21:00.029Z,1.50
2023-05-24T20:23:45.439Z,1.42
2023-05-24T20:26:33.405Z,1.10
2023-05-24T20:29:19.060Z,1.35
2023-05-24T20:32:04.890Z,1.30
2023-05-24T20:34:50.202Z,1.25
2023-05-24T20:37:36.409Z,1.20
2023-05-24T20:40:27.075Z,1.17
2023-05-24T20:43:12.551Z,1.15
2023-05-24T20:45:58.292Z,1.40
2023-05-24T20:48:43.807Z,1.10
2023-05-24T20:51:29.295Z,0.90
2023-05-24T20:54:14.674Z,1.33
2023-05-24T20:56:59.974Z,1.42
2023-05-24T20:59:45.444Z,1.02
2023-05-24T21:02:31.327Z,1.55
2023-05-24T21:05:16.768Z,1.70
2023-05-24T21:08:05.412Z,1.30
2023-05-24T21:10:51.066Z,1.30
2023-05-24T21:13:36.320Z,1.90
2023-05-24T21:16:21.697Z,1.60
2023-05-24T21:19:07.206Z,1.50
2023-05-24T21:21:52.709Z,1.33
2023-05-24T21:24:38.233Z,1.50
2023-05-24T21:27:23.948Z,1.48
2023-05-24T21:30:10.018Z,1.35
2023-05-24T21:32:55.456Z,1.33
2023-05-24T21:35:40.840Z,1.20
2023-05-24T21:38:26.560Z,1.42
2023-05-24T21:41:11.956Z,1.25
2023-05-24T21:43:57.621Z,1.10
2023-05-24T21:46:42.806Z,0.98
2023-05-24T21:49:28.227Z,1.40
2023-05-24T21:52:13.633Z,1.05
2023-05-24T21:54:59.289Z,1.10
2023-05-24T21:57:44.930Z,1.17
2023-05-24T22:00:30.737Z,1.52
2023-05-24T22:03:16.957Z,1.60
2023-05-24T22:06:02.514Z,1.33
2023-05-24T22:08:47.890Z,1.30
2023-05-24T22:11:35.213Z,1.27
2023-05-24T22:14:20.581Z,1.10
2023-05-24T22:17:05.977Z,1.13
2023-05-24T22:19:53.231Z,1.00
2023-05-24T22:22:48.344Z,0.98
2023-05-24T22:25:33.515Z,1.30
2023-05-24T22:28:20.185Z,1.33
2023-05-24T22:31:05.712Z,1.30
2023-05-24T22:33:51.344Z,1.45
2023-05-24T22:36:38.915Z,1.10
2023-05-24T22:39:24.631Z,1.40
2023-05-24T22:42:10.391Z,0.93
2023-05-24T22:44:56.077Z,1.10
2023-05-24T22:47:41.431Z,1.38
2023-05-24T22:50:27.478Z,0.90
2023-05-24T22:53:19.760Z,0.98
2023-05-24T22:58:50.479Z,0.68
2023-05-24T23:01:36.140Z,0.85
2023-05-24T23:04:21.931Z,0.82
2023-05-24T23:07:07.470Z,0.90
2023-05-24T23:09:53.496Z,0.82
2023-05-24T23:12:42.418Z,1.05
2023-05-24T23:15:29.037Z,1.10
2023-05-24T23:18:16.394Z,1.05
2023-05-24T23:21:03.104Z,1.25
2023-05-24T23:23:49.340Z,1.30
2023-05-24T23:26:37.799Z,1.38
2023-05-24T23:29:23.258Z,1.20
2023-05-24T23:32:09.465Z,1.27
2023-05-24T23:34:55.237Z,1.27
2023-05-24T23:37:40.484Z,1.15
2023-05-24T23:40:28.680Z,1.40
2023-05-24T23:43:14.682Z,1.15
2023-05-24T23:46:00.285Z,1.20
2023-05-24T23:48:46.086Z,1.30
2023-05-24T23:51:33.560Z,1.42
2023-05-24T23:54:19.379Z,1.10
2023-05-24T23:57:07.626Z,1.30
2023-05-24T23:59:54.093Z,1.20
